sensor_id;sensor_type;location;lat;lon;timestamp;temperature;humidity
3790;DHT22;1910;49.042;9.028;2023-09-19T00:01:33;17.80;99.90
3790;DHT22;1910;49.042;9.028;2023-09-19T00:03:59;17.80;99.90
3790;DHT22;1910;49.042;9.028;2023-09-19T00:06:25;17.80;99.90
3790;DHT22;1910;49.042;9.028;2023-09-19T00:08:53;17.70;99.90
3790;DHT22;1910;49.042;9.028;2023-09-19T00:11:20;17.60;99.90
3790;DHT22;1910;49.042;9.028;2023-09-19T00:13:47;17.50;99.90
3790;DHT22;1910;49.042;9.028;2023-09-19T00:16:15;17.50;99.90
3790;DHT22;1910;49.042;9.028;2023-09-19T00:18:40;17.50;99.90
3790;DHT22;1910;49.042;9.028;2023-09-19T00:21:06;17.40;99.90
3790;DHT22;1910;49.042;9.028;2023-09-19T00:23:32;17.40;99.90
3790;DHT22;1910;49.042;9.028;2023-09-19T00:25:59;17.30;99.90
3790;DHT22;1910;49.042;9.028;2023-09-19T00:28:28;17.20;99.90
3790;DHT22;1910;49.042;9.028;2023-09-19T00:30:57;17.20;99.90
3790;DHT22;1910;49.042;9.028;2023-09-19T00:33:23;17.20;99.90
3790;DHT22;1910;49.042;9.028;2023-09-19T00:35:53;17.30;99.90
3790;DHT22;1910;49.042;9.028;2023-09-19T00:38:20;17.30;99.90
3790;DHT22;1910;49.042;9.028;2023-09-19T00:40:48;17.30;99.90
3790;DHT22;1910;49.042;9.028;2023-09-19T00:43:14;17.30;99.90
3790;DHT22;1910;49.042;9.028;2023-09-19T00:45:44;17.30;99.90
3790;DHT22;1910;49.042;9.028;2023-09-19T00:48:11;17.20;99.90
3790;DHT22;1910;49.042;9.028;2023-09-19T00:50:38;17.20;99.90
3790;DHT22;1910;49.042;9.028;2023-09-19T00:53:07;17.20;99.90
3790;DHT22;1910;49.042;9.028;2023-09-19T00:55:34;17.20;99.90
3790;DHT22;1910;49.042;9.028;2023-09-19T00:58:00;17.20;99.90
3790;DHT22;1910;49.042;9.028;2023-09-19T01:00:26;17.20;99.90
3790;DHT22;1910;49.042;9.028;2023-09-19T01:02:51;17.20;99.90
3790;DHT22;1910;49.042;9.028;2023-09-19T01:05:17;17.20;99.90
3790;DHT22;1910;49.042;9.028;2023-09-19T01:07:44;17.10;99.90
3790;DHT22;1910;49.042;9.028;2023-09-19T01:10:14;17.10;99.90
3790;DHT22;1910;49.042;9.028;2023-09-19T01:18:20;16.90;99.90
3790;DHT22;1910;49.042;9.028;2023-09-19T01:20:54;17.00;99.90
3790;DHT22;1910;49.042;9.028;2023-09-19T01:29:39;16.70;99.90
3790;DHT22;1910;49.042;9.028;2023-09-19T01:32:06;16.70;99.90
3790;DHT22;1910;49.042;9.028;2023-09-19T01:34:54;16.70;99.90
3790;DHT22;1910;49.042;9.028;2023-09-19T01:37:22;16.80;99.90
3790;DHT22;1910;49.042;9.028;2023-09-19T01:40:04;16.70;99.90
3790;DHT22;1910;49.042;9.028;2023-09-19T01:48:38;16.70;99.90
3790;DHT22;1910;49.042;9.028;2023-09-19T01:51:09;16.70;99.90
3790;DHT22;1910;49.042;9.028;2023-09-19T01:53:50;16.70;99.90
3790;DHT22;1910;49.042;9.028;2023-09-19T01:56:25;16.70;99.90
3790;DHT22;1910;49.042;9.028;2023-09-19T01:58:55;16.70;99.90
3790;DHT22;1910;49.042;9.028;2023-09-19T02:01:24;16.70;99.90
3790;DHT22;1910;49.042;9.028;2023-09-19T02:03:50;16.80;99.90
3790;DHT22;1910;49.042;9.028;2023-09-19T02:06:17;16.80;99.90
3790;DHT22;1910;49.042;9.028;2023-09-19T02:08:44;16.70;99.90
3790;DHT22;1910;49.042;9.028;2023-09-19T02:11:11;16.70;99.90
3790;DHT22;1910;49.042;9.028;2023-09-19T02:13:37;16.70;99.90
3790;DHT22;1910;49.042;9.028;2023-09-19T02:16:03;16.70;99.90
3790;DHT22;1910;49.042;9.028;2023-09-19T02:18:30;16.70;99.90
3790;DHT22;1910;49.042;9.028;2023-09-19T02:20:56;16.60;99.90
3790;DHT22;1910;49.042;9.028;2023-09-19T02:23:24;16.50;99.90
3790;DHT22;1910;49.042;9.028;2023-09-19T02:25:53;17.00;99.90
3790;DHT22;1910;49.042;9.028;2023-09-19T02:28:19;16.50;99.90
3790;DHT22;1910;49.042;9.028;2023-09-19T02:30:48;16.50;99.90
3790;DHT22;1910;49.042;9.028;2023-09-19T02:33:14;16.40;99.90
3790;DHT22;1910;49.042;9.028;2023-09-19T02:35:40;17.50;99.90
3790;DHT22;1910;49.042;9.028;2023-09-19T02:38:05;16.30;99.90
3790;DHT22;1910;49.042;9.028;2023-09-19T02:40:33;16.40;99.90
3790;DHT22;1910;49.042;9.028;2023-09-19T02:43:01;16.30;99.90
3790;DHT22;1910;49.042;9.028;2023-09-19T02:45:27;16.30;99.90
3790;DHT22;1910;49.042;9.028;2023-09-19T02:47:53;16.70;99.90
3790;DHT22;1910;49.042;9.028;2023-09-19T02:50:20;16.50;99.90
3790;DHT22;1910;49.042;9.028;2023-09-19T02:52:46;16.60;99.90
3790;DHT22;1910;49.042;9.028;2023-09-19T02:55:19;16.70;99.90
3790;DHT22;1910;49.042;9.028;2023-09-19T02:57:49;16.80;99.90
3790;DHT22;1910;49.042;9.028;2023-09-19T03:00:16;17.00;99.90
3790;DHT22;1910;49.042;9.028;2023-09-19T03:02:50;17.00;99.90
3790;DHT22;1910;49.042;9.028;2023-09-19T03:05:17;17.10;99.90
3790;DHT22;1910;49.042;9.028;2023-09-19T03:07:43;17.20;99.90
3790;DHT22;1910;49.042;9.028;2023-09-19T03:10:11;17.20;99.90
3790;DHT22;1910;49.042;9.028;2023-09-19T03:12:37;17.10;99.90
3790;DHT22;1910;49.042;9.028;2023-09-19T03:15:05;17.10;99.90
3790;DHT22;1910;49.042;9.028;2023-09-19T03:17:30;17.20;99.90
3790;DHT22;1910;49.042;9.028;2023-09-19T03:19:56;17.20;99.90
3790;DHT22;1910;49.042;9.028;2023-09-19T03:22:22;17.20;99.90
3790;DHT22;1910;49.042;9.028;2023-09-19T03:24:50;17.10;99.90
3790;DHT22;1910;49.042;9.028;2023-09-19T03:27:15;17.60;99.90
3790;DHT22;1910;49.042;9.028;2023-09-19T03:29:42;17.20;99.90
3790;DHT22;1910;49.042;9.028;2023-09-19T03:32:07;17.20;99.90
3790;DHT22;1910;49.042;9.028;2023-09-19T03:34:36;17.10;99.90
3790;DHT22;1910;49.042;9.028;2023-09-19T03:37:03;17.10;99.90
3790;DHT22;1910;49.042;9.028;2023-09-19T03:39:29;17.10;99.90
3790;DHT22;1910;49.042;9.028;2023-09-19T03:41:54;17.20;99.90
3790;DHT22;1910;49.042;9.028;2023-09-19T03:44:20;17.10;99.90
3790;DHT22;1910;49.042;9.028;2023-09-19T03:46:45;17.10;99.90
3790;DHT22;1910;49.042;9.028;2023-09-19T03:49:11;17.10;99.90
3790;DHT22;1910;49.042;9.028;2023-09-19T03:51:36;17.10;99.90
3790;DHT22;1910;49.042;9.028;2023-09-19T03:54:03;17.00;99.90
3790;DHT22;1910;49.042;9.028;2023-09-19T03:56:29;17.10;99.90
3790;DHT22;1910;49.042;9.028;2023-09-19T03:58:55;17.00;99.90
3790;DHT22;1910;49.042;9.028;2023-09-19T04:01:20;17.10;99.90
3790;DHT22;1910;49.042;9.028;2023-09-19T04:03:46;17.00;99.90
3790;DHT22;1910;49.042;9.028;2023-09-19T04:06:13;17.00;99.90
3790;DHT22;1910;49.042;9.028;2023-09-19T04:08:39;17.00;99.90
3790;DHT22;1910;49.042;9.028;2023-09-19T04:11:05;16.90;99.90
3790;DHT22;1910;49.042;9.028;2023-09-19T04:13:30;16.90;99.90
3790;DHT22;1910;49.042;9.028;2023-09-19T04:15:56;17.10;99.90
3790;DHT22;1910;49.042;9.028;2023-09-19T04:18:22;16.90;99.90
3790;DHT22;1910;49.042;9.028;2023-09-19T04:20:52;16.80;99.90
3790;DHT22;1910;49.042;9.028;2023-09-19T04:23:18;16.70;99.90
3790;DHT22;1910;49.042;9.028;2023-09-19T04:25:46;16.70;99.90
3790;DHT22;1910;49.042;9.028;2023-09-19T04:28:11;16.60;99.90
3790;DHT22;1910;49.042;9.028;2023-09-19T04:30:38;16.60;99.90
3790;DHT22;1910;49.042;9.028;2023-09-19T04:33:06;16.60;99.90
3790;DHT22;1910;49.042;9.028;2023-09-19T04:35:32;16.50;99.90
3790;DHT22;1910;49.042;9.028;2023-09-19T04:37:58;16.50;99.90
3790;DHT22;1910;49.042;9.028;2023-09-19T04:40:24;16.50;99.90
3790;DHT22;1910;49.042;9.028;2023-09-19T04:42:55;16.50;99.90
3790;DHT22;1910;49.042;9.028;2023-09-19T04:45:24;16.50;99.90
3790;DHT22;1910;49.042;9.028;2023-09-19T04:47:50;16.50;99.90
3790;DHT22;1910;49.042;9.028;2023-09-19T04:50:16;16.50;99.90
3790;DHT22;1910;49.042;9.028;2023-09-19T04:52:43;16.50;99.90
3790;DHT22;1910;49.042;9.028;2023-09-19T04:55:13;16.60;99.90
3790;DHT22;1910;49.042;9.028;2023-09-19T04:57:46;16.60;99.90
3790;DHT22;1910;49.042;9.028;2023-09-19T05:00:17;16.60;99.90
3790;DHT22;1910;49.042;9.028;2023-09-19T05:02:48;16.60;99.90
3790;DHT22;1910;49.042;9.028;2023-09-19T05:05:14;16.60;99.90
3790;DHT22;1910;49.042;9.028;2023-09-19T05:07:40;16.60;99.90
3790;DHT22;1910;49.042;9.028;2023-09-19T05:10:06;16.60;99.90
3790;DHT22;1910;49.042;9.028;2023-09-19T05:12:34;16.60;99.90
3790;DHT22;1910;49.042;9.028;2023-09-19T05:15:00;16.60;99.90
3790;DHT22;1910;49.042;9.028;2023-09-19T05:17:27;16.60;99.90
3790;DHT22;1910;49.042;9.028;2023-09-19T05:19:52;16.50;99.90
3790;DHT22;1910;49.042;9.028;2023-09-19T05:22:18;16.50;99.90
3790;DHT22;1910;49.042;9.028;2023-09-19T05:24:44;16.60;99.90
3790;DHT22;1910;49.042;9.028;2023-09-19T05:27:15;16.50;99.90
3790;DHT22;1910;49.042;9.028;2023-09-19T05:29:43;16.50;99.90
3790;DHT22;1910;49.042;9.028;2023-09-19T05:32:10;16.50;99.90
3790;DHT22;1910;49.042;9.028;2023-09-19T05:34:36;16.50;99.90
3790;DHT22;1910;49.042;9.028;2023-09-19T05:37:02;16.60;99.90
3790;DHT22;1910;49.042;9.028;2023-09-19T05:39:27;16.50;99.90
3790;DHT22;1910;49.042;9.028;2023-09-19T05:41:53;16.60;99.90
3790;DHT22;1910;49.042;9.028;2023-09-19T05:44:18;16.60;99.90
3790;DHT22;1910;49.042;9.028;2023-09-19T05:46:44;16.60;99.90
3790;DHT22;1910;49.042;9.028;2023-09-19T05:49:13;16.60;99.90
3790;DHT22;1910;49.042;9.028;2023-09-19T05:51:39;16.70;99.90
3790;DHT22;1910;49.042;9.028;2023-09-19T05:54:05;16.70;99.90
3790;DHT22;1910;49.042;9.028;2023-09-19T05:56:30;16.70;99.90
3790;DHT22;1910;49.042;9.028;2023-09-19T05:58:56;16.70;99.90
3790;DHT22;1910;49.042;9.028;2023-09-19T06:01:22;16.70;99.90
3790;DHT22;1910;49.042;9.028;2023-09-19T06:03:47;16.60;99.90
3790;DHT22;1910;49.042;9.028;2023-09-19T06:06:13;16.60;99.90
3790;DHT22;1910;49.042;9.028;2023-09-19T06:08:39;16.60;99.90
3790;DHT22;1910;49.042;9.028;2023-09-19T06:11:05;16.80;99.90
3790;DHT22;1910;49.042;9.028;2023-09-19T06:13:34;16.70;99.90
3790;DHT22;1910;49.042;9.028;2023-09-19T06:16:01;16.70;99.90
3790;DHT22;1910;49.042;9.028;2023-09-19T06:18:31;16.70;99.90
3790;DHT22;1910;49.042;9.028;2023-09-19T06:20:59;18.00;99.90
3790;DHT22;1910;49.042;9.028;2023-09-19T06:23:25;16.70;99.90
3790;DHT22;1910;49.042;9.028;2023-09-19T06:25:52;16.80;99.90
3790;DHT22;1910;49.042;9.028;2023-09-19T06:28:18;17.00;99.90
3790;DHT22;1910;49.042;9.028;2023-09-19T06:30:49;17.00;99.90
3790;DHT22;1910;49.042;9.028;2023-09-19T06:33:16;17.00;99.90
3790;DHT22;1910;49.042;9.028;2023-09-19T06:35:42;17.30;99.90
3790;DHT22;1910;49.042;9.028;2023-09-19T06:38:10;17.70;99.90
3790;DHT22;1910;49.042;9.028;2023-09-19T06:40:38;17.80;99.90
3790;DHT22;1910;49.042;9.028;2023-09-19T06:43:05;18.40;99.90
3790;DHT22;1910;49.042;9.028;2023-09-19T06:45:31;19.00;99.90
3790;DHT22;1910;49.042;9.028;2023-09-19T06:47:57;19.10;99.90
3790;DHT22;1910;49.042;9.028;2023-09-19T06:50:23;19.30;99.90
3790;DHT22;1910;49.042;9.028;2023-09-19T06:52:50;19.20;99.90
3790;DHT22;1910;49.042;9.028;2023-09-19T06:55:21;18.90;99.90
3790;DHT22;1910;49.042;9.028;2023-09-19T06:57:49;18.50;99.90
3790;DHT22;1910;49.042;9.028;2023-09-19T07:00:15;18.50;99.90
3790;DHT22;1910;49.042;9.028;2023-09-19T07:03:01;19.40;99.90
3790;DHT22;1910;49.042;9.028;2023-09-19T07:05:30;18.60;99.90
3790;DHT22;1910;49.042;9.028;2023-09-19T07:07:57;18.50;99.90
3790;DHT22;1910;49.042;9.028;2023-09-19T07:10:26;18.50;99.90
3790;DHT22;1910;49.042;9.028;2023-09-19T07:13:02;18.20;99.90
3790;DHT22;1910;49.042;9.028;2023-09-19T07:15:29;18.10;99.90
3790;DHT22;1910;49.042;9.028;2023-09-19T07:18:01;18.50;99.90
3790;DHT22;1910;49.042;9.028;2023-09-19T07:20:27;18.60;99.90
3790;DHT22;1910;49.042;9.028;2023-09-19T07:22:54;18.70;99.90
3790;DHT22;1910;49.042;9.028;2023-09-19T07:25:20;18.60;99.90
3790;DHT22;1910;49.042;9.028;2023-09-19T07:27:46;18.70;99.90
3790;DHT22;1910;49.042;9.028;2023-09-19T07:30:12;18.90;99.90
3790;DHT22;1910;49.042;9.028;2023-09-19T07:32:38;18.80;99.90
3790;DHT22;1910;49.042;9.028;2023-09-19T07:35:05;18.90;99.90
3790;DHT22;1910;49.042;9.028;2023-09-19T07:37:31;18.80;99.90
3790;DHT22;1910;49.042;9.028;2023-09-19T07:39:59;18.90;99.90
3790;DHT22;1910;49.042;9.028;2023-09-19T07:42:24;18.90;99.90
3790;DHT22;1910;49.042;9.028;2023-09-19T07:44:51;19.20;99.90
3790;DHT22;1910;49.042;9.028;2023-09-19T07:47:16;19.70;99.90
3790;DHT22;1910;49.042;9.028;2023-09-19T07:49:42;20.10;99.90
3790;DHT22;1910;49.042;9.028;2023-09-19T07:52:09;20.70;99.90
3790;DHT22;1910;49.042;9.028;2023-09-19T07:54:35;21.10;99.90
3790;DHT22;1910;49.042;9.028;2023-09-19T07:57:04;20.70;99.90
3790;DHT22;1910;49.042;9.028;2023-09-19T07:59:30;20.60;99.90
3790;DHT22;1910;49.042;9.028;2023-09-19T08:01:55;21.00;99.90
3790;DHT22;1910;49.042;9.028;2023-09-19T08:04:21;20.70;99.90
3790;DHT22;1910;49.042;9.028;2023-09-19T08:06:46;21.70;99.90
3790;DHT22;1910;49.042;9.028;2023-09-19T08:09:12;21.60;99.90
3790;DHT22;1910;49.042;9.028;2023-09-19T08:11:41;21.70;99.90
3790;DHT22;1910;49.042;9.028;2023-09-19T08:14:07;22.30;99.90
3790;DHT22;1910;49.042;9.028;2023-09-19T08:16:34;22.60;99.90
3790;DHT22;1910;49.042;9.028;2023-09-19T08:18:59;23.70;99.90
3790;DHT22;1910;49.042;9.028;2023-09-19T08:21:25;25.10;99.90
3790;DHT22;1910;49.042;9.028;2023-09-19T08:23:53;26.00;99.90
3790;DHT22;1910;49.042;9.028;2023-09-19T08:26:18;25.20;99.90
3790;DHT22;1910;49.042;9.028;2023-09-19T08:28:45;24.40;99.90
3790;DHT22;1910;49.042;9.028;2023-09-19T08:31:10;24.40;99.90
3790;DHT22;1910;49.042;9.028;2023-09-19T08:33:37;22.90;99.90
3790;DHT22;1910;49.042;9.028;2023-09-19T08:36:03;22.80;99.90
3790;DHT22;1910;49.042;9.028;2023-09-19T08:38:31;23.10;99.90
3790;DHT22;1910;49.042;9.028;2023-09-19T08:40:59;22.90;99.90
3790;DHT22;1910;49.042;9.028;2023-09-19T08:43:25;22.30;99.90
3790;DHT22;1910;49.042;9.028;2023-09-19T08:45:54;21.80;99.90
3790;DHT22;1910;49.042;9.028;2023-09-19T08:48:29;21.40;99.90
3790;DHT22;1910;49.042;9.028;2023-09-19T08:51:00;22.40;99.90
3790;DHT22;1910;49.042;9.028;2023-09-19T08:56:26;22.20;99.90
3790;DHT22;1910;49.042;9.028;2023-09-19T08:59:03;22.00;99.90
3790;DHT22;1910;49.042;9.028;2023-09-19T09:01:31;20.80;99.90
3790;DHT22;1910;49.042;9.028;2023-09-19T09:03:58;20.60;99.90
3790;DHT22;1910;49.042;9.028;2023-09-19T09:06:25;20.80;99.90
3790;DHT22;1910;49.042;9.028;2023-09-19T09:08:51;20.10;99.90
3790;DHT22;1910;49.042;9.028;2023-09-19T09:11:19;20.10;99.90
3790;DHT22;1910;49.042;9.028;2023-09-19T09:13:45;20.40;99.90
3790;DHT22;1910;49.042;9.028;2023-09-19T09:16:12;20.70;99.90
3790;DHT22;1910;49.042;9.028;2023-09-19T09:18:39;20.70;99.90
3790;DHT22;1910;49.042;9.028;2023-09-19T09:21:05;21.20;99.90
3790;DHT22;1910;49.042;9.028;2023-09-19T09:23:30;21.90;99.90
3790;DHT22;1910;49.042;9.028;2023-09-19T09:25:58;21.10;99.90
3790;DHT22;1910;49.042;9.028;2023-09-19T09:28:27;20.30;99.90
3790;DHT22;1910;49.042;9.028;2023-09-19T09:30:57;20.30;99.90
3790;DHT22;1910;49.042;9.028;2023-09-19T09:33:36;20.60;99.90
3790;DHT22;1910;49.042;9.028;2023-09-19T09:36:03;20.60;99.90
3790;DHT22;1910;49.042;9.028;2023-09-19T09:38:42;21.10;99.90
3790;DHT22;1910;49.042;9.028;2023-09-19T09:41:09;22.10;99.90
3790;DHT22;1910;49.042;9.028;2023-09-19T09:43:39;22.50;99.90
3790;DHT22;1910;49.042;9.028;2023-09-19T09:46:15;22.30;99.90
3790;DHT22;1910;49.042;9.028;2023-09-19T09:48:57;21.30;99.90
3790;DHT22;1910;49.042;9.028;2023-09-19T09:51:51;20.80;99.90
3790;DHT22;1910;49.042;9.028;2023-09-19T09:54:26;19.90;99.90
3790;DHT22;1910;49.042;9.028;2023-09-19T09:57:08;19.60;99.90
3790;DHT22;1910;49.042;9.028;2023-09-19T10:04:54;19.10;99.90
3790;DHT22;1910;49.042;9.028;2023-09-19T10:07:50;19.00;99.90
3790;DHT22;1910;49.042;9.028;2023-09-19T10:10:34;19.00;99.90
3790;DHT22;1910;49.042;9.028;2023-09-19T10:13:08;18.80;99.90
3790;DHT22;1910;49.042;9.028;2023-09-19T10:15:37;18.80;99.90
3790;DHT22;1910;49.042;9.028;2023-09-19T10:18:06;18.70;99.90
3790;DHT22;1910;49.042;9.028;2023-09-19T10:20:36;19.10;99.90
3790;DHT22;1910;49.042;9.028;2023-09-19T10:23:09;19.40;99.90
3790;DHT22;1910;49.042;9.028;2023-09-19T10:25:41;19.60;99.90
3790;DHT22;1910;49.042;9.028;2023-09-19T10:28:08;19.30;99.90
3790;DHT22;1910;49.042;9.028;2023-09-19T10:30:43;19.50;99.90
3790;DHT22;1910;49.042;9.028;2023-09-19T10:33:25;20.00;99.90
3790;DHT22;1910;49.042;9.028;2023-09-19T10:35:58;20.00;99.90
3790;DHT22;1910;49.042;9.028;2023-09-19T10:38:26;20.50;99.90
3790;DHT22;1910;49.042;9.028;2023-09-19T10:40:53;20.40;99.90
3790;DHT22;1910;49.042;9.028;2023-09-19T10:43:21;20.70;99.90
3790;DHT22;1910;49.042;9.028;2023-09-19T10:45:48;20.90;99.90
3790;DHT22;1910;49.042;9.028;2023-09-19T10:48:15;21.20;99.90
3790;DHT22;1910;49.042;9.028;2023-09-19T10:53:39;21.50;99.90
3790;DHT22;1910;49.042;9.028;2023-09-19T10:56:06;20.80;99.90
3790;DHT22;1910;49.042;9.028;2023-09-19T10:58:35;20.50;99.90
3790;DHT22;1910;49.042;9.028;2023-09-19T11:01:04;20.60;99.90
3790;DHT22;1910;49.042;9.028;2023-09-19T11:03:41;21.00;99.90
3790;DHT22;1910;49.042;9.028;2023-09-19T11:06:17;21.40;99.90
3790;DHT22;1910;49.042;9.028;2023-09-19T11:08:55;21.50;99.90
3790;DHT22;1910;49.042;9.028;2023-09-19T11:30:39;21.50;99.90
3790;DHT22;1910;49.042;9.028;2023-09-19T11:33:28;21.30;99.90
3790;DHT22;1910;49.042;9.028;2023-09-19T11:36:14;21.00;99.90
3790;DHT22;1910;49.042;9.028;2023-09-19T11:46:30;21.00;99.90
3790;DHT22;1910;49.042;9.028;2023-09-19T11:49:08;21.50;99.90
3790;DHT22;1910;49.042;9.028;2023-09-19T11:51:41;21.70;99.90
3790;DHT22;1910;49.042;9.028;2023-09-19T11:54:12;21.80;99.90
3790;DHT22;1910;49.042;9.028;2023-09-19T11:56:53;21.10;99.90
3790;DHT22;1910;49.042;9.028;2023-09-19T11:59:31;20.90;99.90
3790;DHT22;1910;49.042;9.028;2023-09-19T12:02:01;20.80;99.90
3790;DHT22;1910;49.042;9.028;2023-09-19T12:04:36;21.10;99.90
3790;DHT22;1910;49.042;9.028;2023-09-19T12:07:06;21.50;99.90
3790;DHT22;1910;49.042;9.028;2023-09-19T12:09:38;21.50;99.90
3790;DHT22;1910;49.042;9.028;2023-09-19T12:12:05;21.60;99.90
3790;DHT22;1910;49.042;9.028;2023-09-19T12:14:31;21.40;99.90
3790;DHT22;1910;49.042;9.028;2023-09-19T12:16:57;21.20;99.90
3790;DHT22;1910;49.042;9.028;2023-09-19T12:19:26;21.30;99.90
3790;DHT22;1910;49.042;9.028;2023-09-19T12:21:58;21.60;99.90
3790;DHT22;1910;49.042;9.028;2023-09-19T12:24:26;21.80;99.90
3790;DHT22;1910;49.042;9.028;2023-09-19T12:26:59;21.50;99.90
3790;DHT22;1910;49.042;9.028;2023-09-19T12:29:27;21.20;99.90
3790;DHT22;1910;49.042;9.028;2023-09-19T12:31:58;21.80;99.90
3790;DHT22;1910;49.042;9.028;2023-09-19T12:34:31;22.40;99.90
3790;DHT22;1910;49.042;9.028;2023-09-19T12:39:44;22.90;99.90
3790;DHT22;1910;49.042;9.028;2023-09-19T12:42:24;23.10;99.90
3790;DHT22;1910;49.042;9.028;2023-09-19T12:44:53;22.60;99.90
3790;DHT22;1910;49.042;9.028;2023-09-19T12:47:23;22.40;99.90
3790;DHT22;1910;49.042;9.028;2023-09-19T12:50:15;22.90;99.90
3790;DHT22;1910;49.042;9.028;2023-09-19T12:52:49;22.50;99.90
3790;DHT22;1910;49.042;9.028;2023-09-19T12:55:26;22.60;99.90
3790;DHT22;1910;49.042;9.028;2023-09-19T12:58:08;22.60;99.90
3790;DHT22;1910;49.042;9.028;2023-09-19T13:00:40;22.70;99.90
3790;DHT22;1910;49.042;9.028;2023-09-19T13:06:00;22.50;99.90
3790;DHT22;1910;49.042;9.028;2023-09-19T13:16:04;22.40;99.90
3790;DHT22;1910;49.042;9.028;2023-09-19T13:19:03;22.50;99.90
3790;DHT22;1910;49.042;9.028;2023-09-19T13:21:34;22.20;99.90
3790;DHT22;1910;49.042;9.028;2023-09-19T13:24:24;22.30;99.90
3790;DHT22;1910;49.042;9.028;2023-09-19T13:26:56;22.70;99.90
3790;DHT22;1910;49.042;9.028;2023-09-19T13:29:22;22.90;99.90
3790;DHT22;1910;49.042;9.028;2023-09-19T13:31:48;23.20;99.90
3790;DHT22;1910;49.042;9.028;2023-09-19T13:34:14;23.30;99.90
3790;DHT22;1910;49.042;9.028;2023-09-19T13:36:42;22.50;99.90
3790;DHT22;1910;49.042;9.028;2023-09-19T13:39:08;22.10;99.90
3790;DHT22;1910;49.042;9.028;2023-09-19T13:41:35;22.30;99.90
3790;DHT22;1910;49.042;9.028;2023-09-19T13:44:02;22.80;99.90
3790;DHT22;1910;49.042;9.028;2023-09-19T13:46:28;22.90;99.90
3790;DHT22;1910;49.042;9.028;2023-09-19T13:48:53;23.00;99.90
3790;DHT22;1910;49.042;9.028;2023-09-19T13:51:20;23.00;99.90
3790;DHT22;1910;49.042;9.028;2023-09-19T13:53:48;23.00;99.90
3790;DHT22;1910;49.042;9.028;2023-09-19T13:56:16;22.70;99.90
3790;DHT22;1910;49.042;9.028;2023-09-19T13:58:41;22.50;99.90
3790;DHT22;1910;49.042;9.028;2023-09-19T14:01:07;22.30;99.90
3790;DHT22;1910;49.042;9.028;2023-09-19T14:03:41;22.00;99.90
3790;DHT22;1910;49.042;9.028;2023-09-19T14:06:21;22.20;99.90
3790;DHT22;1910;49.042;9.028;2023-09-19T14:08:46;22.20;99.90
3790;DHT22;1910;49.042;9.028;2023-09-19T14:11:13;22.10;99.90
3790;DHT22;1910;49.042;9.028;2023-09-19T14:13:39;21.90;99.90
3790;DHT22;1910;49.042;9.028;2023-09-19T14:16:06;22.00;99.90
3790;DHT22;1910;49.042;9.028;2023-09-19T14:18:32;22.00;99.90
3790;DHT22;1910;49.042;9.028;2023-09-19T14:20:58;22.00;99.90
3790;DHT22;1910;49.042;9.028;2023-09-19T14:23:23;22.30;99.90
3790;DHT22;1910;49.042;9.028;2023-09-19T14:25:50;22.20;99.90
3790;DHT22;1910;49.042;9.028;2023-09-19T14:28:17;22.30;99.90
3790;DHT22;1910;49.042;9.028;2023-09-19T14:30:43;22.50;99.90
3790;DHT22;1910;49.042;9.028;2023-09-19T14:33:09;22.50;99.90
3790;DHT22;1910;49.042;9.028;2023-09-19T14:35:37;22.60;99.90
3790;DHT22;1910;49.042;9.028;2023-09-19T14:38:03;22.40;99.90
3790;DHT22;1910;49.042;9.028;2023-09-19T14:40:28;22.20;99.90
3790;DHT22;1910;49.042;9.028;2023-09-19T14:42:54;22.40;99.90
3790;DHT22;1910;49.042;9.028;2023-09-19T14:45:19;22.40;99.90
3790;DHT22;1910;49.042;9.028;2023-09-19T14:47:50;22.60;99.90
3790;DHT22;1910;49.042;9.028;2023-09-19T14:50:18;22.80;99.90
3790;DHT22;1910;49.042;9.028;2023-09-19T14:52:43;22.70;99.90
3790;DHT22;1910;49.042;9.028;2023-09-19T14:55:09;22.30;99.90
3790;DHT22;1910;49.042;9.028;2023-09-19T14:57:41;22.30;99.90
3790;DHT22;1910;49.042;9.028;2023-09-19T15:00:10;22.00;99.90
3790;DHT22;1910;49.042;9.028;2023-09-19T15:02:40;22.20;99.90
3790;DHT22;1910;49.042;9.028;2023-09-19T15:05:06;22.30;99.90
3790;DHT22;1910;49.042;9.028;2023-09-19T15:07:37;22.60;99.90
3790;DHT22;1910;49.042;9.028;2023-09-19T15:10:04;22.70;99.90
3790;DHT22;1910;49.042;9.028;2023-09-19T15:12:33;22.70;99.90
3790;DHT22;1910;49.042;9.028;2023-09-19T15:14:58;22.80;99.90
3790;DHT22;1910;49.042;9.028;2023-09-19T15:17:24;22.30;99.40
3790;DHT22;1910;49.042;9.028;2023-09-19T15:19:50;22.20;99.50
3790;DHT22;1910;49.042;9.028;2023-09-19T15:22:16;22.40;99.90
3790;DHT22;1910;49.042;9.028;2023-09-19T15:24:42;22.40;99.90
3790;DHT22;1910;49.042;9.028;2023-09-19T15:27:08;22.30;99.50
3790;DHT22;1910;49.042;9.028;2023-09-19T15:29:33;22.20;99.90
3790;DHT22;1910;49.042;9.028;2023-09-19T15:31:59;22.30;99.90
3790;DHT22;1910;49.042;9.028;2023-09-19T15:34:28;22.10;99.90
3790;DHT22;1910;49.042;9.028;2023-09-19T15:36:55;22.10;99.90
3790;DHT22;1910;49.042;9.028;2023-09-19T15:39:20;22.00;99.90
3790;DHT22;1910;49.042;9.028;2023-09-19T15:41:48;21.90;99.90
3790;DHT22;1910;49.042;9.028;2023-09-19T15:44:18;21.70;99.90
3790;DHT22;1910;49.042;9.028;2023-09-19T15:46:44;21.70;99.90
3790;DHT22;1910;49.042;9.028;2023-09-19T15:49:11;21.60;99.90
3790;DHT22;1910;49.042;9.028;2023-09-19T15:51:37;21.50;99.90
3790;DHT22;1910;49.042;9.028;2023-09-19T15:54:11;21.50;99.90
3790;DHT22;1910;49.042;9.028;2023-09-19T15:56:39;21.50;99.90
3790;DHT22;1910;49.042;9.028;2023-09-19T15:59:06;21.50;99.90
3790;DHT22;1910;49.042;9.028;2023-09-19T16:01:32;21.40;99.90
3790;DHT22;1910;49.042;9.028;2023-09-19T16:03:58;21.30;99.90
3790;DHT22;1910;49.042;9.028;2023-09-19T16:06:26;21.40;99.90
3790;DHT22;1910;49.042;9.028;2023-09-19T16:08:54;21.80;99.90
3790;DHT22;1910;49.042;9.028;2023-09-19T16:11:22;21.30;99.90
3790;DHT22;1910;49.042;9.028;2023-09-19T16:13:49;21.30;99.90
3790;DHT22;1910;49.042;9.028;2023-09-19T16:16:17;21.10;99.90
3790;DHT22;1910;49.042;9.028;2023-09-19T16:18:56;21.00;99.90
3790;DHT22;1910;49.042;9.028;2023-09-19T16:21:27;21.00;99.90
3790;DHT22;1910;49.042;9.028;2023-09-19T16:23:54;21.10;99.90
3790;DHT22;1910;49.042;9.028;2023-09-19T16:26:20;21.10;99.90
3790;DHT22;1910;49.042;9.028;2023-09-19T16:28:47;21.00;99.90
3790;DHT22;1910;49.042;9.028;2023-09-19T16:31:13;21.00;99.90
3790;DHT22;1910;49.042;9.028;2023-09-19T16:33:40;21.00;99.90
3790;DHT22;1910;49.042;9.028;2023-09-19T16:36:14;20.90;99.90
3790;DHT22;1910;49.042;9.028;2023-09-19T16:38:41;20.80;99.90
3790;DHT22;1910;49.042;9.028;2023-09-19T16:41:07;20.70;99.90
3790;DHT22;1910;49.042;9.028;2023-09-19T16:43:37;21.30;99.90
3790;DHT22;1910;49.042;9.028;2023-09-19T16:46:04;20.50;99.90
3790;DHT22;1910;49.042;9.028;2023-09-19T16:48:33;20.60;99.90
3790;DHT22;1910;49.042;9.028;2023-09-19T16:51:04;20.70;99.90
3790;DHT22;1910;49.042;9.028;2023-09-19T16:53:33;20.70;99.90
3790;DHT22;1910;49.042;9.028;2023-09-19T16:56:07;20.60;99.90
3790;DHT22;1910;49.042;9.028;2023-09-19T16:58:43;20.70;99.90
3790;DHT22;1910;49.042;9.028;2023-09-19T17:01:11;20.50;99.90
3790;DHT22;1910;49.042;9.028;2023-09-19T17:03:38;20.50;99.90
3790;DHT22;1910;49.042;9.028;2023-09-19T17:06:11;20.30;99.90
3790;DHT22;1910;49.042;9.028;2023-09-19T17:08:39;20.30;99.90
3790;DHT22;1910;49.042;9.028;2023-09-19T17:11:08;20.20;99.90
3790;DHT22;1910;49.042;9.028;2023-09-19T17:13:35;20.10;99.90
3790;DHT22;1910;49.042;9.028;2023-09-19T17:16:12;20.00;99.90
3790;DHT22;1910;49.042;9.028;2023-09-19T17:18:40;19.90;99.90
3790;DHT22;1910;49.042;9.028;2023-09-19T17:21:06;19.80;99.90